Dades meteomassalio
Diari Summary for Febrer 17, 2018 Units:  Metric    English   Both
« Previous Day
Next Day »
Diari Semanal Mensual Anual Personalitzat
  Maxima: Minima: Mijana:
Temperatura: -17.8 °C -15.9 °C -12.4 °C
Rosada: -17.8 °C -16.8 °C -14.7 °C
Humitat: Humidity % 58 % 77 %
Velocitat del vent: 0 km/h 0 km/h 27 km/h
Racha vent: 0 km/h - -
Vent:- - NW
Pressio: 0 hPa 34611.7 hPa -
Pluja: 12.7 mm    
Historical Graphs
 
 
Tabular Data for Febrer 17, 2018
Time Temperature Dew Point Pressure Wind Wind Speed Wind Gust Humidity Rainfall Rate (Hourly) solar Conditions
-17.8 °C -17.8 °C 0 hPa Calm     Humidity % 0 mm SolarRadiationWatts/m^2 W/m2 Conditions
00:01 -12.8 °C -13.8 °C 34669.3 hPa Calm     89 % 0 mm 0.0 W/m2 CLR
00:06 -12.8 °C -13.8 °C 34669.3 hPa Calm     89 % 0 mm 0.0 W/m2 CLR
00:11 -12.8 °C -13.8 °C 34669.3 hPa Calm     89 % 0 mm 0.0 W/m2 CLR
00:16 -12.8 °C -13.7 °C 34659.1 hPa Calm     90 % 7.62 mm 0.0 W/m2 RA
00:21 -12.8 °C -13.7 °C 34659.1 hPa Calm     90 % 7.62 mm 0.0 W/m2 CLR
00:26 -12.8 °C -13.7 °C 34659.1 hPa Calm     90 % 7.62 mm 0.0 W/m2 CLR
00:31 -12.8 °C -13.7 °C 34659.1 hPa Calm     90 % 7.62 mm 0.0 W/m2 CLR
00:36 -12.8 °C -13.6 °C 34659.1 hPa Calm     91 % 7.62 mm 0.0 W/m2 CLR
00:41 -12.8 °C -13.6 °C 34659.1 hPa Calm     91 % 7.62 mm 0.0 W/m2 CLR
00:46 -12.8 °C -13.6 °C 34659.1 hPa Calm     91 % 7.62 mm 0.0 W/m2 CLR
00:51 -12.8 °C -13.6 °C 34659.1 hPa Calm     91 % 7.62 mm 0.0 W/m2 CLR
00:56 -13.2 °C -13.9 °C 34659.1 hPa Calm     91 % 7.62 mm 0.0 W/m2 CLR
01:01 -13.2 °C -13.9 °C 34659.1 hPa Calm     91 % 7.62 mm 0.0 W/m2 CLR
01:06 -13.2 °C -13.9 °C 34659.1 hPa Calm     91 % 7.62 mm 0.0 W/m2 CLR
01:11 -13.2 °C -13.9 °C 34659.1 hPa Calm     91 % 7.62 mm 0.0 W/m2 CLR
01:16 -13.2 °C -13.9 °C 34659.1 hPa Calm     91 % 0 mm 0.0 W/m2 CLR
01:21 -13.2 °C -13.9 °C 34659.1 hPa Calm     91 % 0 mm 0.0 W/m2 CLR
01:26 -13.2 °C -13.9 °C 34659.1 hPa Calm     91 % 0 mm 0.0 W/m2 CLR
01:31 -13.2 °C -13.8 °C 34659.1 hPa Calm     92 % 0 mm 0.0 W/m2 CLR
01:36 -13.2 °C -13.8 °C 34659.1 hPa Calm     92 % 0 mm 0.0 W/m2 CLR
01:41 -13.2 °C -13.8 °C 34645.6 hPa Calm     92 % 0 mm 0.0 W/m2 CLR
01:47 -12.8 °C -13.5 °C 34645.6 hPa Calm     92 % 0 mm 0.0 W/m2 CLR
01:52 -13.2 °C -13.8 °C 34645.6 hPa Calm     92 % 0 mm 0.0 W/m2 CLR
01:57 -13.2 °C -13.8 °C 34645.6 hPa Calm     92 % 0 mm 0.0 W/m2 CLR
02:02 -13.2 °C -13.8 °C 34645.6 hPa Calm     92 % 0 mm 0.0 W/m2 CLR
02:07 -13.2 °C -13.8 °C 34645.6 hPa Calm     92 % 0 mm 0.0 W/m2 CLR
02:12 -13.2 °C -13.8 °C 34645.6 hPa Calm     92 % 0 mm 0.0 W/m2 CLR
02:17 -13.2 °C -13.8 °C 34645.6 hPa Calm     92 % 0 mm 0.0 W/m2 CLR
02:22 -12.8 °C -13.5 °C 34645.6 hPa Calm     92 % 0 mm 0.0 W/m2 CLR
02:27 -12.8 °C -13.5 °C 34635.4 hPa Calm     92 % 0 mm 0.0 W/m2 CLR
02:32 -12.8 °C -13.5 °C 34635.4 hPa Calm     92 % 0 mm 0.0 W/m2 CLR
02:37 -12.8 °C -13.5 °C 34635.4 hPa Calm     92 % 0 mm 0.0 W/m2 CLR
02:42 -12.8 °C -13.5 °C 34635.4 hPa Calm     92 % 0 mm 0.0 W/m2 CLR
02:47 -12.8 °C -13.5 °C 34635.4 hPa Calm     92 % 0 mm 0.0 W/m2 CLR
02:52 -12.8 °C -13.5 °C 34635.4 hPa Calm     92 % 0 mm 0.0 W/m2 CLR
02:57 -12.8 °C -13.5 °C 34635.4 hPa Calm     92 % 0 mm 0.0 W/m2 CLR
03:02 -12.8 °C -13.5 °C 34635.4 hPa Calm     92 % 0 mm 0.0 W/m2 CLR
03:07 -12.8 °C -13.5 °C 34635.4 hPa Calm     92 % 0 mm 0.0 W/m2 CLR
03:12 -12.8 °C -13.5 °C 34635.4 hPa Calm     92 % 0 mm 0.0 W/m2 CLR
03:17 -12.8 °C -13.5 °C 34635.4 hPa Calm     92 % 0 mm 0.0 W/m2 CLR
03:22 -12.8 °C -13.5 °C 34635.4 hPa Calm     92 % 0 mm 0.0 W/m2 CLR
03:27 -12.8 °C -13.5 °C 34635.4 hPa Calm     92 % 0 mm 0.0 W/m2 CLR
03:32 -13.2 °C -13.8 °C 34625.2 hPa Calm     92 % 0 mm 0.0 W/m2 CLR
03:37 -13.2 °C -13.8 °C 34625.2 hPa Calm     92 % 0 mm 0.0 W/m2 CLR
03:42 -13.2 °C -13.8 °C 34625.2 hPa Calm     92 % 0 mm 0.0 W/m2 CLR
03:47 -13.4 °C -14.1 °C 34625.2 hPa Calm     92 % 0 mm 0.0 W/m2 CLR
03:52 -13.4 °C -14.1 °C 34625.2 hPa Calm     92 % 0 mm 0.0 W/m2 CLR
03:57 -13.8 °C -14.4 °C 34625.2 hPa Calm     92 % 0 mm 0.0 W/m2 CLR
04:02 -13.8 °C -14.4 °C 34625.2 hPa Calm     92 % 0 mm 0.0 W/m2 CLR
04:07 -13.8 °C -14.4 °C 34625.2 hPa Calm     92 % 0 mm 0.0 W/m2 CLR
04:12 -14.1 °C -14.8 °C 34625.2 hPa Calm     92 % 0 mm 0.0 W/m2 CLR
04:17 -14.1 °C -14.8 °C 34625.2 hPa Calm     92 % 0 mm 0.0 W/m2 CLR
04:22 -14.1 °C -14.8 °C 34625.2 hPa Calm     92 % 0 mm 0.0 W/m2 CLR
04:27 -14.4 °C -15.1 °C 34625.2 hPa Calm     92 % 0 mm 0.0 W/m2 CLR
04:32 -14.4 °C -15.1 °C 34625.2 hPa Calm     92 % 0 mm 0.0 W/m2 CLR
04:37 -14.4 °C -15.1 °C 34625.2 hPa Calm     92 % 0 mm 0.0 W/m2 CLR
04:42 -14.7 °C -15.4 °C 34611.7 hPa Calm     92 % 0 mm 0.0 W/m2 CLR
04:47 -14.7 °C -15.4 °C 34611.7 hPa Calm     92 % 0 mm 0.0 W/m2 CLR
04:52 -14.7 °C -15.3 °C 34611.7 hPa Calm     93 % 0 mm 0.0 W/m2 CLR
04:57 -14.7 °C -15.3 °C 34611.7 hPa Calm     93 % 0 mm 0.0 W/m2 CLR
05:02 -14.7 °C -15.4 °C 34611.7 hPa Calm     92 % 0 mm 0.0 W/m2 CLR
05:07 -14.7 °C -15.4 °C 34611.7 hPa Calm     92 % 0 mm 0.0 W/m2 CLR
05:12 -14.7 °C -15.4 °C 34625.2 hPa Calm     92 % 0 mm 0.0 W/m2 CLR
05:17 -14.7 °C -15.3 °C 34625.2 hPa Calm     93 % 0 mm 0.0 W/m2 CLR
05:22 -15 °C -15.6 °C 34625.2 hPa Calm     93 % 0 mm 0.0 W/m2 CLR
05:27 -15 °C -15.6 °C 34625.2 hPa Calm     93 % 0 mm 0.0 W/m2 CLR
05:32 -15 °C -15.7 °C 34625.2 hPa Calm     92 % 0 mm 0.0 W/m2 CLR
05:37 -15 °C -15.6 °C 34625.2 hPa Calm     93 % 0 mm 0.0 W/m2 CLR
05:42 -15 °C -15.6 °C 34625.2 hPa Calm     93 % 0 mm 0.0 W/m2 CLR
05:47 -15 °C -15.7 °C 34625.2 hPa Calm     92 % 0 mm 0.0 W/m2 CLR
05:52 -15 °C -15.6 °C 34625.2 hPa Calm     93 % 0 mm 0.0 W/m2 CLR
05:57 -15.3 °C -15.9 °C 34625.2 hPa Calm     93 % 0 mm 0.0 W/m2 CLR
06:02 -15.3 °C -15.9 °C 34625.2 hPa Calm     93 % 0 mm 0.0 W/m2 CLR
06:07 -15.3 °C -15.9 °C 34635.4 hPa Calm     93 % 0 mm 0.0 W/m2 CLR
06:12 -15.3 °C -15.9 °C 34625.2 hPa Calm     93 % 0 mm 0.0 W/m2 CLR
06:17 -15.3 °C -15.9 °C 34625.2 hPa Calm     93 % 0 mm 0.0 W/m2 CLR
06:22 -15.3 °C -15.9 °C 34625.2 hPa Calm     93 % 0 mm 0.0 W/m2 CLR
06:27 -15.3 °C -15.9 °C 34635.4 hPa Calm     93 % 0 mm 0.0 W/m2 CLR
06:32 -15.3 °C -15.9 °C 34635.4 hPa Calm     93 % 7.62 mm 0.0 W/m2 RA
06:37 -15.6 °C -16.2 °C 34625.2 hPa Calm     93 % 7.62 mm 0.0 W/m2
06:42 -15.6 °C -16.2 °C 34625.2 hPa Calm     93 % 7.62 mm 0.0 W/m2 CLR
06:47 -15.6 °C -16.2 °C 34635.4 hPa Calm     93 % 7.62 mm 0.0 W/m2 CLR
06:52 -15.6 °C -16.2 °C 34635.4 hPa Calm     93 % 7.62 mm 0.0 W/m2 CLR
06:57 -15.6 °C -16.2 °C 34635.4 hPa Calm     93 % 7.62 mm 0.0 W/m2 CLR
07:02 -15.6 °C -16.2 °C 34635.4 hPa Calm     93 % 7.62 mm 0.0 W/m2 CLR
07:07 -15.6 °C -16.2 °C 34635.4 hPa Calm     93 % 7.62 mm 0.0 W/m2 CLR
07:12 -15.6 °C -16.2 °C 34635.4 hPa Calm     93 % 7.62 mm 0.0 W/m2 CLR
07:17 -15.9 °C -16.5 °C 34635.4 hPa Calm     93 % 7.62 mm 0.0 W/m2 CLR
07:22 -15.9 °C -16.5 °C 34635.4 hPa Calm     93 % 7.62 mm 0.0 W/m2 CLR
07:27 -15.6 °C -16.2 °C 34635.4 hPa Calm     93 % 7.62 mm 0.0 W/m2 CLR
07:32 -15.6 °C -16.2 °C 34635.4 hPa Calm     93 % 0 mm 0.0 W/m2 CLR
07:37 -15.3 °C -15.9 °C 34635.4 hPa Calm     93 % 0 mm 0.0 W/m2 CLR
07:42 -15.3 °C -15.9 °C 34645.6 hPa Calm     93 % 0 mm 0.0 W/m2 OVC
07:47 -15 °C -15.6 °C 34645.6 hPa Calm     93 % 0 mm 0.0 W/m2 OVC
07:52 -15 °C -15.6 °C 34645.6 hPa Calm     93 % 0 mm 0.0 W/m2 OVC
07:57 -15 °C -15.6 °C 34645.6 hPa Calm     93 % 0 mm 9.0 W/m2 BKN
08:02 -14.7 °C -15.3 °C 34645.6 hPa Calm     93 % 0 mm 14.0 W/m2 BKN
08:07 -14.7 °C -15.3 °C 34645.6 hPa Calm     93 % 0 mm 18.0 W/m2 BKN
08:12 -14.7 °C -15.3 °C 34659.1 hPa Calm     93 % 0 mm 21.0 W/m2 BKN
08:17 -14.7 °C -15.3 °C 34659.1 hPa Calm     93 % 0 mm 32.0 W/m2 BKN
08:22 -14.7 °C -15.3 °C 34659.1 hPa Calm     93 % 0 mm 39.0 W/m2 BKN
08:27 -14.7 °C -15.3 °C 34659.1 hPa Calm     93 % 0 mm 37.0 W/m2 BKN
08:32 -14.4 °C -14.9 °C 34659.1 hPa Calm     93 % 0 mm 30.0 W/m2 BKN
08:37 -14.4 °C -14.9 °C 34669.3 hPa Calm     93 % 0 mm 33.0 W/m2 BKN
08:42 -14.4 °C -14.9 °C 34669.3 hPa Calm     93 % 0 mm 40.0 W/m2 BKN
08:47 -14.4 °C -14.9 °C 34669.3 hPa Calm     93 % 0 mm 47.0 W/m2 SCT
08:52 -14.1 °C -14.7 °C 34669.3 hPa Calm     93 % 0 mm 47.0 W/m2 SCT
08:57 -14.1 °C -14.7 °C 34669.3 hPa Calm     93 % 0 mm 53.0 W/m2 SCT
09:02 -14.1 °C -14.7 °C 34669.3 hPa Calm     93 % 0 mm 60.0 W/m2 SCT
09:07 -14.1 °C -14.6 °C 34669.3 hPa Calm     94 % 0 mm 67.0 W/m2 SCT
09:12 -13.8 °C -14.3 °C 34669.3 hPa Calm     93 % 0 mm 51.0 W/m2 SCT
09:17 -13.8 °C -14.3 °C 34669.3 hPa Calm     93 % 0 mm 40.0 W/m2 SCT
09:22 -13.8 °C -14.3 °C 34669.3 hPa Calm     94 % 0 mm 30.0 W/m2 BKN
09:27 -13.8 °C -14.3 °C 34669.3 hPa Calm     94 % 0 mm 51.0 W/m2 BKN
09:32 -13.4 °C -13.9 °C 34669.3 hPa Calm     94 % 0 mm 86.0 W/m2 SCT
09:37 -13.4 °C -14.1 °C 34669.3 hPa Calm     93 % 0 mm 86.0 W/m2 FEW
09:42 -13.4 °C -14.1 °C 34669.3 hPa Calm     93 % 0 mm 76.0 W/m2 FEW
09:47 -13.2 °C -13.7 °C 34669.3 hPa West 6 km/h 6 km/h 94 % 0 mm 88.0 W/m2 FEW
09:52 -13.2 °C -13.7 °C 34669.3 hPa Calm     94 % 0 mm 93.0 W/m2 CLR
09:57 -12.8 °C -13.3 °C 34682.8 hPa NW 23.8 km/h 23.8 km/h 94 % 0 mm 91.0 W/m2 CLR
10:02 -12.8 °C -13.3 °C 34682.8 hPa NW 20.9 km/h 20.9 km/h 94 % 0 mm 70.0 W/m2 CLR
10:07 -12.2 °C -12.9 °C 34682.8 hPa WNW 18.2 km/h 18.2 km/h 92 % 0 mm 67.0 W/m2 FEW
10:12 -12.2 °C -13 °C 34682.8 hPa NW 11.9 km/h 11.9 km/h 91 % 0 mm 74.0 W/m2 FEW
10:18 -11.9 °C -12.9 °C 34682.8 hPa NW 15 km/h 15 km/h 89 % 0 mm 98.0 W/m2 FEW
10:23 -11.6 °C -12.7 °C 34682.8 hPa NW 17.9 km/h 17.9 km/h 88 % 0 mm 135.0 W/m2 CLR
10:28 -11.3 °C -12.4 °C 34682.8 hPa NW 20.9 km/h 20.9 km/h 88 % 0 mm 169.0 W/m2 CLR
10:33 -11.3 °C -12.4 °C 34682.8 hPa NNW 25.9 km/h 25.9 km/h 87 % 0 mm 162.0 W/m2 CLR
10:38 -11 °C -12.2 °C 34693 hPa WNW 29.8 km/h 29.8 km/h 87 % 0 mm 163.0 W/m2 CLR
10:43 -11 °C -12.3 °C 34693 hPa NW 35.7 km/h 35.7 km/h 86 % 0 mm 197.0 W/m2 CLR
10:48 -10.7 °C -11.9 °C 34693 hPa NNW 50.7 km/h 50.7 km/h 86 % 0 mm 227.0 W/m2 CLR
10:53 -10.7 °C -12.1 °C 34693 hPa NNW 35.7 km/h 35.7 km/h 85 % 0 mm 246.0 W/m2 CLR
10:58 -10.7 °C -12.1 °C 34693 hPa NW 38.8 km/h 38.8 km/h 85 % 0 mm 202.0 W/m2 CLR
11:03 -10.7 °C -12.1 °C 34693 hPa North 25.9 km/h 25.9 km/h 85 % 0 mm 214.0 W/m2 CLR
11:08 -10.7 °C -12.1 °C 34693 hPa NW 50.7 km/h 50.7 km/h 84 % 0 mm 230.0 W/m2 CLR
11:13 -10.4 °C -11.8 °C 34693 hPa NW 38.8 km/h 38.8 km/h 84 % 0 mm 241.0 W/m2 CLR
11:18 -10.4 °C -11.9 °C 34693 hPa NNW 50.7 km/h 50.7 km/h 83 % 0 mm 239.0 W/m2 CLR
11:23 -10.4 °C -12.1 °C 34693 hPa NNW 50.7 km/h 50.7 km/h 81 % 0 mm 359.0 W/m2 CLR
11:28 -10.4 °C -12.1 °C 34693 hPa NNW 38.8 km/h 38.8 km/h 81 % 0 mm 287.0 W/m2 CLR
11:33 -10.4 °C -12.3 °C 34693 hPa North 38.8 km/h 38.8 km/h 80 % 0 mm 216.0 W/m2 CLR
11:38 -10.4 °C -12.3 °C 34693 hPa NNW 32.8 km/h 32.8 km/h 79 % 0 mm 229.0 W/m2 CLR
11:43 -10.4 °C -12.4 °C 34693 hPa NW 41.7 km/h 41.7 km/h 78 % 0 mm 179.0 W/m2 CLR
11:48 -10.4 °C -12.6 °C 34703.1 hPa NNW 53.6 km/h 53.6 km/h 77 % 0 mm 204.0 W/m2 CLR
11:53 -10.4 °C -12.7 °C 34703.1 hPa NW 53.6 km/h 53.6 km/h 76 % 0 mm 214.0 W/m2 CLR
11:58 -10.4 °C -12.8 °C 34693 hPa North 62.6 km/h 62.6 km/h 75 % 0 mm 227.0 W/m2 CLR
12:03 -10.4 °C -12.9 °C 34703.1 hPa NNW 50.7 km/h 50.7 km/h 74 % 0 mm 255.0 W/m2 CLR
12:08 -10.4 °C -12.9 °C 34703.1 hPa North 50.7 km/h 50.7 km/h 74 % 0 mm 262.0 W/m2 CLR
12:13 -10.4 °C -12.9 °C 34703.1 hPa NNW 44.7 km/h 44.7 km/h 74 % 0 mm 258.0 W/m2 CLR
12:18 -10.1 °C -12.6 °C 34703.1 hPa NNW 50.7 km/h 50.7 km/h 74 % 0 mm 301.0 W/m2 CLR
12:23 -10.1 °C -12.6 °C 34703.1 hPa NW 44.7 km/h 44.7 km/h 74 % 0 mm 309.0 W/m2 CLR
12:28 -10.1 °C -12.8 °C 34703.1 hPa NW 62.6 km/h 62.6 km/h 72 % 0 mm 436.0 W/m2 CLR
12:33 -9.8 °C -12.7 °C 34703.1 hPa NW 68.6 km/h 68.6 km/h 70 % 0 mm 304.0 W/m2 CLR
12:38 -10.1 °C -13.2 °C 34703.1 hPa NNW 68.6 km/h 68.6 km/h 69 % 0 mm 308.0 W/m2 CLR
12:43 -10.1 °C -13.1 °C 34703.1 hPa NW 59.5 km/h 59.5 km/h 70 % 0 mm 334.0 W/m2 CLR
12:48 -10.1 °C -12.9 °C 34703.1 hPa WNW 44.7 km/h 44.7 km/h 71 % 0 mm 381.0 W/m2 CLR
12:53 -10.1 °C -13.1 °C 34703.1 hPa NW 56.6 km/h 56.6 km/h 70 % 0 mm 410.0 W/m2 CLR
12:58 -10.1 °C -13.3 °C 34703.1 hPa NNW 47.6 km/h 47.6 km/h 68 % 0 mm 366.0 W/m2 CLR
13:03 -10.1 °C -13.2 °C 34703.1 hPa NNW 50.7 km/h 50.7 km/h 69 % 0 mm 425.0 W/m2 CLR
13:08 -9.8 °C -13.1 °C 34703.1 hPa NW 56.6 km/h 56.6 km/h 67 % 0 mm 343.0 W/m2 CLR
13:13 -10.1 °C -13.4 °C 34703.1 hPa NNW 56.6 km/h 56.6 km/h 67 % 0 mm 355.0 W/m2 CLR
13:18 -10.1 °C -13.3 °C 34703.1 hPa NNW 47.6 km/h 47.6 km/h 68 % 0 mm 367.0 W/m2 CLR
13:23 -10.1 °C -13.4 °C 34703.1 hPa NNW 62.6 km/h 62.6 km/h 67 % 0 mm 364.0 W/m2 CLR
13:28 -10.1 °C -13.7 °C 34703.1 hPa NW 62.6 km/h 62.6 km/h 65 % 0 mm 246.0 W/m2 CLR
13:33 -10.1 °C -13.6 °C 34703.1 hPa NNW 50.7 km/h 50.7 km/h 66 % 0 mm 285.0 W/m2 CLR
13:38 -10.1 °C -13.7 °C 34693 hPa NW 68.6 km/h 68.6 km/h 65 % 0 mm 352.0 W/m2 CLR
13:43 -10.1 °C -13.7 °C 34693 hPa NNW 65.5 km/h 65.5 km/h 65 % 0 mm 330.0 W/m2 CLR
13:48 -10.1 °C -13.8 °C 34693 hPa NW 59.5 km/h 59.5 km/h 64 % 0 mm 257.0 W/m2 CLR
13:53 -10.1 °C -13.8 °C 34693 hPa NW 59.5 km/h 59.5 km/h 64 % 0 mm 276.0 W/m2 CLR
13:58 -10.4 °C -13.9 °C 34693 hPa NNW 62.6 km/h 62.6 km/h 65 % 0 mm 420.0 W/m2 CLR
14:03 -9.8 °C -13.5 °C 34693 hPa NNW 59.5 km/h 59.5 km/h 64 % 0 mm 578.0 W/m2 CLR
14:08 -9.8 °C -13.6 °C 34693 hPa NNW 50.7 km/h 50.7 km/h 63 % 0 mm 411.0 W/m2 CLR
14:13 -9.8 °C -13.6 °C 34693 hPa NW 51.8 km/h 51.8 km/h 63 % 0 mm 390.0 W/m2 CLR
14:18 -9.8 °C -13.9 °C 34693 hPa NNW 62.6 km/h 62.6 km/h 61 % 0 mm 454.0 W/m2 CLR
14:23 -9.8 °C -13.9 °C 34693 hPa NNW 54.4 km/h 54.4 km/h 61 % 0 mm 661.0 W/m2 CLR
14:28 -9.4 °C -13.6 °C 34693 hPa NW 50.7 km/h 50.7 km/h 61 % 0 mm 714.0 W/m2 CLR
14:33 -9.4 °C -13.7 °C 34682.8 hPa NW 56.6 km/h 56.6 km/h 60 % 0 mm 575.0 W/m2 CLR
14:38 -9.4 °C -13.7 °C 34682.8 hPa NNW 41.7 km/h 41.7 km/h 60 % 0 mm 693.0 W/m2 CLR
14:43 -9.1 °C -13.6 °C 34682.8 hPa NW 68.6 km/h 68.6 km/h 59 % 0 mm 591.0 W/m2 CLR
14:48 -9.4 °C -13.7 °C 34682.8 hPa NW 50.7 km/h 50.7 km/h 60 % 0 mm 432.0 W/m2 CLR
14:53 -9.4 °C -13.8 °C 34682.8 hPa NNW 62.6 km/h 62.6 km/h 59 % 0 mm 446.0 W/m2 CLR
14:58 -9.8 °C -14.2 °C 34682.8 hPa NW 53.6 km/h 53.6 km/h 59 % 0 mm 302.0 W/m2 CLR
15:03 -9.8 °C -14.2 °C 34693 hPa NNW 59.5 km/h 59.5 km/h 59 % 0 mm 367.0 W/m2 CLR
15:08 -9.8 °C -14 °C 34693 hPa North 44.7 km/h 44.7 km/h 60 % 0 mm 461.0 W/m2 CLR
15:13 -9.4 °C -13.8 °C 34682.8 hPa NW 53.6 km/h 53.6 km/h 59 % 0 mm 571.0 W/m2 CLR
15:18 -9.4 °C -13.8 °C 34682.8 hPa NNW 44.7 km/h 44.7 km/h 59 % 0 mm 338.0 W/m2 CLR
15:23 -9.4 °C -13.8 °C 34682.8 hPa NNW 68.6 km/h 68.6 km/h 59 % 0 mm 345.0 W/m2 CLR
15:28 -9.8 °C -13.9 °C 34693 hPa NNW 44.7 km/h 44.7 km/h 61 % 0 mm 322.0 W/m2 CLR
15:33 -10.1 °C -14.3 °C 34682.8 hPa NNW 65.5 km/h 65.5 km/h 60 % 0 mm 264.0 W/m2 CLR
15:38 -10.1 °C -14.3 °C 34682.8 hPa NNW 53.6 km/h 53.6 km/h 60 % 0 mm 188.0 W/m2 CLR
15:43 -10.1 °C -14.2 °C 34682.8 hPa NNW 47.6 km/h 47.6 km/h 61 % 0 mm 232.0 W/m2 CLR
15:49 -10.1 °C -14.2 °C 34693 hPa NNW 56.6 km/h 56.6 km/h 61 % 0 mm 216.0 W/m2 CLR
15:54 -10.1 °C -14.3 °C 34693 hPa NNW 62.6 km/h 62.6 km/h 60 % 0 mm 388.0 W/m2 CLR
15:59 -10.1 °C -14.3 °C 34682.8 hPa NW 56.6 km/h 56.6 km/h 60 % 0 mm 378.0 W/m2 CLR
16:04 -10.1 °C -14.3 °C 34693 hPa NNW 50.7 km/h 50.7 km/h 60 % 0 mm 176.0 W/m2 CLR
16:09 -10.1 °C -14.2 °C 34693 hPa NNW 68.6 km/h 68.6 km/h 61 % 0 mm 223.0 W/m2 CLR
16:14 -10.4 °C -14.5 °C 34693 hPa NNW 65.5 km/h 65.5 km/h 61 % 0 mm 211.0 W/m2 CLR
16:19 -10.4 °C -14.3 °C 34693 hPa NW 50.7 km/h 50.7 km/h 62 % 0 mm 225.0 W/m2 CLR
16:24 -10.4 °C -14.3 °C 34693 hPa NNW 53.6 km/h 53.6 km/h 62 % 0 mm 204.0 W/m2 CLR
16:29 -10.4 °C -14.3 °C 34693 hPa NNW 53.6 km/h 53.6 km/h 62 % 0 mm 186.0 W/m2 CLR
16:34 -10.7 °C -14.5 °C 34693 hPa NW 54.4 km/h 54.4 km/h 63 % 0 mm 169.0 W/m2 CLR
16:39 -10.4 °C -14.3 °C 34693 hPa NNW 59.5 km/h 59.5 km/h 62 % 0 mm 209.0 W/m2 CLR
16:44 -10.7 °C -14.5 °C 34693 hPa NNW 50.7 km/h 50.7 km/h 63 % 0 mm 165.0 W/m2 CLR
16:49 -10.7 °C -14.5 °C 34693 hPa NW 50.7 km/h 50.7 km/h 63 % 0 mm 151.0 W/m2 CLR
16:54 -10.7 °C -14.5 °C 34693 hPa NNW 62.6 km/h 62.6 km/h 63 % 0 mm 144.0 W/m2 CLR
16:59 -10.7 °C -14.6 °C 34693 hPa NW 65.5 km/h 65.5 km/h 62 % 0 mm 139.0 W/m2 CLR
17:04 -10.7 °C -14.5 °C 34693 hPa WNW 50.7 km/h 50.7 km/h 63 % 0 mm 132.0 W/m2 CLR
17:09 -10.7 °C -14.5 °C 34693 hPa NW 65.5 km/h 65.5 km/h 63 % 0 mm 135.0 W/m2 CLR
17:14 -10.7 °C -14.6 °C 34693 hPa NW 68.6 km/h 68.6 km/h 62 % 0 mm 134.0 W/m2 CLR
17:19 -11 °C -14.8 °C 34703.1 hPa NW 59.5 km/h 59.5 km/h 63 % 0 mm 113.0 W/m2 CLR
17:24 -11 °C -14.8 °C 34693 hPa NNW 56.6 km/h 56.6 km/h 63 % 0 mm 100.0 W/m2 CLR
17:29 -11 °C -14.8 °C 34703.1 hPa NNW 51.8 km/h 51.8 km/h 63 % 0 mm 79.0 W/m2 CLR
17:34 -11 °C -14.7 °C 34703.1 hPa NNW 47.6 km/h 47.6 km/h 64 % 0 mm 70.0 W/m2 FEW
17:39 -11 °C -14.7 °C 34703.1 hPa NNW 50.7 km/h 50.7 km/h 64 % 0 mm 62.0 W/m2 SCT
17:44 -11 °C -14.7 °C 34703.1 hPa NW 47.6 km/h 47.6 km/h 64 % 0 mm 54.0 W/m2 SCT
17:49 -11.3 °C -14.9 °C 34703.1 hPa NW 41.7 km/h 41.7 km/h 64 % 0 mm 49.0 W/m2 SCT
17:54 -11.3 °C -14.9 °C 34703.1 hPa NW 53.6 km/h 53.6 km/h 64 % 0 mm 44.0 W/m2 BKN
17:59 -11.3 °C -14.9 °C 34716.7 hPa NW 56.6 km/h 56.6 km/h 64 % 0 mm 39.0 W/m2 BKN
18:04 -11.3 °C -14.9 °C 34716.7 hPa NW 44.7 km/h 44.7 km/h 64 % 0 mm 33.0 W/m2 BKN
18:09 -11.3 °C -14.9 °C 34716.7 hPa NW 47.6 km/h 47.6 km/h 64 % 0 mm 30.0 W/m2 BKN
18:14 -11.3 °C -14.9 °C 34716.7 hPa NW 53.6 km/h 53.6 km/h 64 % 0 mm 25.0 W/m2 BKN
18:19 -11.3 °C -14.9 °C 34716.7 hPa North 47.6 km/h 47.6 km/h 64 % 0 mm 19.0 W/m2 BKN
18:24 -11.6 °C -15.1 °C 34716.7 hPa NW 41.7 km/h 41.7 km/h 65 % 0 mm 12.0 W/m2 BKN
18:29 -11.6 °C -15.1 °C 34716.7 hPa NW 15 km/h 15 km/h 65 % 0 mm 9.0 W/m2 BKN
18:34 -11.6 °C -15.1 °C 34726.8 hPa NW 50.7 km/h 50.7 km/h 65 % 0 mm 5.0 W/m2 OVC
18:39 -11.6 °C -15.1 °C 34716.7 hPa NW 31.1 km/h 31.1 km/h 65 % 0 mm 0.0 W/m2 OVC
18:44 -11.6 °C -15.1 °C 34716.7 hPa NW 38.8 km/h 38.8 km/h 65 % 0 mm 0.0 W/m2 OVC
18:49 -11.6 °C -15.2 °C 34716.7 hPa NW 57 km/h 57 km/h 64 % 0 mm 0.0 W/m2 CLR
18:54 -11.6 °C -15.4 °C 34726.8 hPa NW 50.7 km/h 50.7 km/h 63 % 0 mm 0.0 W/m2 CLR
18:59 -11.6 °C -15.4 °C 34716.7 hPa NW 29.8 km/h 29.8 km/h 63 % 0 mm 0.0 W/m2 CLR
19:04 -11.6 °C -15.5 °C 34726.8 hPa NW 35.7 km/h 35.7 km/h 62 % 0 mm 0.0 W/m2 CLR
19:09 -11.6 °C -15.6 °C 34726.8 hPa NNW 38.8 km/h 38.8 km/h 61 % 0 mm 0.0 W/m2 CLR
19:14 -11.9 °C -15.9 °C 34726.8 hPa WNW 32.8 km/h 32.8 km/h 61 % 0 mm 0.0 W/m2 CLR
19:19 -11.9 °C -16.1 °C 34726.8 hPa NW 50.7 km/h 50.7 km/h 60 % 0 mm 0.0 W/m2 CLR
19:24 -11.9 °C -16.2 °C 34726.8 hPa NW 50.7 km/h 50.7 km/h 59 % 0 mm 0.0 W/m2 CLR
19:29 -11.9 °C -16.2 °C 34726.8 hPa NW 50.7 km/h 50.7 km/h 59 % 0 mm 0.0 W/m2 CLR
19:34 -11.9 °C -16.3 °C 34726.8 hPa NW 50.7 km/h 50.7 km/h 58 % 0 mm 0.0 W/m2 CLR
19:39 -11.9 °C -16.3 °C 34726.8 hPa NW 44.7 km/h 44.7 km/h 58 % 0 mm 0.0 W/m2 CLR
19:44 -11.9 °C -16.3 °C 34726.8 hPa WNW 41.7 km/h 41.7 km/h 58 % 0 mm 0.0 W/m2 CLR
19:49 -11.9 °C -16.3 °C 34726.8 hPa NW 50.7 km/h 50.7 km/h 58 % 0 mm 0.0 W/m2 CLR
19:54 -11.9 °C -16.3 °C 34726.8 hPa NW 38.8 km/h 38.8 km/h 58 % 0 mm 0.0 W/m2 CLR
19:59 -11.9 °C -16.3 °C 34740.4 hPa NW 32.8 km/h 32.8 km/h 58 % 0 mm 0.0 W/m2 CLR
20:04 -11.9 °C -16.2 °C 34740.4 hPa NNW 38.8 km/h 38.8 km/h 59 % 0 mm 0.0 W/m2 CLR
20:09 -11.9 °C -16.1 °C 34726.8 hPa NW 59.5 km/h 59.5 km/h 60 % 0 mm 0.0 W/m2 CLR
20:14 -11.9 °C -16.1 °C 34740.4 hPa NNW 53.6 km/h 53.6 km/h 60 % 0 mm 0.0 W/m2 CLR
20:19 -11.9 °C -15.9 °C 34740.4 hPa NW 41.7 km/h 41.7 km/h 61 % 0 mm 0.0 W/m2 CLR
20:24 -12.2 °C -16.2 °C 34740.4 hPa NNW 53.6 km/h 53.6 km/h 61 % 0 mm 0.0 W/m2 CLR
20:29 -12.2 °C -16.2 °C 34740.4 hPa WNW 50.7 km/h 50.7 km/h 61 % 0 mm 0.0 W/m2 CLR
20:34 -12.2 °C -16.2 °C 34740.4 hPa NW 47.6 km/h 47.6 km/h 61 % 0 mm 0.0 W/m2 CLR
20:39 -12.2 °C -16.2 °C 34740.4 hPa NW 50.7 km/h 50.7 km/h 61 % 0 mm 0.0 W/m2 CLR
20:44 -12.2 °C -16.1 °C 34740.4 hPa NW 44.7 km/h 44.7 km/h 62 % 0 mm 0.0 W/m2 CLR
20:49 -12.2 °C -16.1 °C 34740.4 hPa NNW 50.7 km/h 50.7 km/h 62 % 0 mm 0.0 W/m2 CLR
20:54 -12.6 °C -16.4 °C 34750.5 hPa NW 50.7 km/h 50.7 km/h 62 % 0 mm 0.0 W/m2 CLR
20:59 -12.6 °C -16.4 °C 34750.5 hPa NNW 44.1 km/h 44.1 km/h 62 % 0 mm 0.0 W/m2 CLR
21:05 -12.6 °C -16.5 °C 34760.7 hPa NW 50.7 km/h 50.7 km/h 61 % 0 mm 0.0 W/m2 CLR
21:10 -12.6 °C -16.5 °C 34760.7 hPa NNW 44.7 km/h 44.7 km/h 61 % 0 mm 0.0 W/m2 CLR
21:14 -12.6 °C -16.5 °C 34760.7 hPa NW 50.7 km/h 50.7 km/h 61 % 0 mm 0.0 W/m2 CLR
21:20 -12.6 °C -16.6 °C 34760.7 hPa NW 41.7 km/h 41.7 km/h 60 % 0 mm 0.0 W/m2 CLR
21:25 -12.6 °C -16.6 °C 34760.7 hPa NW 35.7 km/h 35.7 km/h 60 % 0 mm 0.0 W/m2 CLR
21:30 -12.8 °C -16.8 °C 34760.7 hPa NW 38.8 km/h 38.8 km/h 61 % 0 mm 0.0 W/m2 CLR
21:35 -12.8 °C -16.8 °C 34760.7 hPa NW 29.8 km/h 29.8 km/h 61 % 0 mm 0.0 W/m2 CLR
21:40 -12.8 °C -16.7 °C 34774.2 hPa NNW 44.7 km/h 44.7 km/h 62 % 0 mm 0.0 W/m2 CLR
21:45 -12.8 °C -16.7 °C 34774.2 hPa NW 28.5 km/h 28.5 km/h 62 % 0 mm 0.0 W/m2 CLR
21:50 -12.8 °C -16.7 °C 34774.2 hPa NW 44.7 km/h 44.7 km/h 62 % 0 mm 0.0 W/m2 CLR
21:55 -12.8 °C -16.7 °C 34774.2 hPa NW 38.8 km/h 38.8 km/h 62 % 0 mm 0.0 W/m2 CLR
22:00 -12.8 °C -16.6 °C 34774.2 hPa NW 35.7 km/h 35.7 km/h 63 % 0 mm 0.0 W/m2 CLR
22:05 -13.2 °C -16.8 °C 34774.2 hPa NW 32.8 km/h 32.8 km/h 63 % 0 mm 0.0 W/m2 CLR
22:10 -13.2 °C -16.8 °C 34774.2 hPa NNW 41.7 km/h 41.7 km/h 63 % 0 mm 0.0 W/m2 CLR
22:15 -13.2 °C -16.7 °C 34784.4 hPa NNW 36.2 km/h 36.2 km/h 64 % 0 mm 0.0 W/m2 CLR
22:20 -13.2 °C -16.7 °C 34784.4 hPa NW 38.8 km/h 38.8 km/h 64 % 0 mm 0.0 W/m2 CLR
22:25 -13.2 °C -16.7 °C 34774.2 hPa NW 41.7 km/h 41.7 km/h 64 % 0 mm 0.0 W/m2 CLR
22:30 -13.2 °C -16.6 °C 34784.4 hPa NW 31.1 km/h 31.1 km/h 65 % 0 mm 0.0 W/m2 CLR
22:35 -13.2 °C -16.6 °C 34784.4 hPa NW 29.8 km/h 29.8 km/h 65 % 0 mm 0.0 W/m2 CLR
22:40 -13.2 °C -16.6 °C 34784.4 hPa NW 41.7 km/h 41.7 km/h 65 % 0 mm 0.0 W/m2 CLR
22:45 -13.2 °C -16.6 °C 34784.4 hPa NW 33.6 km/h 33.6 km/h 65 % 0 mm 0.0 W/m2 CLR
22:50 -13.2 °C -16.6 °C 34784.4 hPa NW 32.8 km/h 32.8 km/h 65 % 0 mm 0.0 W/m2 CLR
22:55 -13.4 °C -16.8 °C 34784.4 hPa NW 32.8 km/h 32.8 km/h 66 % 0 mm 0.0 W/m2 CLR
23:00 -13.4 °C -16.8 °C 34784.4 hPa WNW 29.8 km/h 29.8 km/h 66 % 0 mm 0.0 W/m2 CLR
23:05 -13.4 °C -16.8 °C 34784.4 hPa WNW 29.8 km/h 29.8 km/h 66 % 0 mm 0.0 W/m2 CLR
23:10 -13.4 °C -16.8 °C 34797.9 hPa WNW 29.8 km/h 29.8 km/h 66 % 0 mm 0.0 W/m2 CLR
23:15 -13.4 °C -16.6 °C 34797.9 hPa WNW 26.9 km/h 26.9 km/h 67 % 0 mm 0.0 W/m2 CLR
23:20 -13.4 °C -16.6 °C 34797.9 hPa WNW 33.6 km/h 33.6 km/h 67 % 0 mm 0.0 W/m2 CLR
23:25 -13.8 °C -16.8 °C 34784.4 hPa WNW 47.6 km/h 47.6 km/h 68 % 0 mm 0.0 W/m2 CLR
23:30 -13.8 °C -16.8 °C 34784.4 hPa NW 23.8 km/h 23.8 km/h 68 % 0 mm 0.0 W/m2 CLR
23:35 -13.8 °C -16.7 °C 34784.4 hPa WNW 36.2 km/h 36.2 km/h 69 % 0 mm 0.0 W/m2 CLR
23:40 -13.8 °C -16.7 °C 34784.4 hPa NW 26.9 km/h 26.9 km/h 69 % 0 mm 0.0 W/m2 CLR
23:45 -13.8 °C -16.6 °C 34784.4 hPa NW 29.8 km/h 29.8 km/h 70 % 0 mm 0.0 W/m2 CLR
23:50 -13.8 °C -16.6 °C 34784.4 hPa NW 26.9 km/h 26.9 km/h 70 % 0 mm 0.0 W/m2 CLR
23:55 -13.8 °C -16.6 °C 34784.4 hPa West 29.8 km/h 29.8 km/h 70 % 0 mm 0.0 W/m2 CLR
Lo Temps de Massalio
Compliments of Weather Underground - 1.25 mb